Private Wetterstation Ehingen
Wetterdaten: aktuell Samstag, 19.08.2017 21:35
Datum Zeit Temperatur Luftfeuchte Luftdruck Regen Wind Richtung Richtung Sonnenschein Taupunkt Windchill Windben
19.08.2017 21:35 15,7 C 71 % 1020,1 hPa 0,0 l/m 0,0 km/h (0 Bft) NW 326 0 min 10,5 C 15,7 C 0,0 km/h (0 Bft)
19.08.2017 21:30 15,8 C 70 % 1020,1 hPa 0,0 l/m 0,0 km/h (0 Bft) W 281 0 min 10,3 C 15,8 C 0,0 km/h (0 Bft)
19.08.2017 21:25 15,9 C 69 % 1020,0 hPa 0,0 l/m 0,0 km/h (0 Bft) W 281 0 min 10,2 C 15,9 C 0,0 km/h (0 Bft)
19.08.2017 21:20 16,0 C 68 % 1020,0 hPa 0,0 l/m 0,0 km/h (0 Bft) W 281 0 min 10,1 C 16,0 C 0,0 km/h (0 Bft)
19.08.2017 21:15 16,1 C 70 % 1020,0 hPa 0,0 l/m 0,0 km/h (0 Bft) W 281 0 min 10,6 C 16,1 C 0,0 km/h (0 Bft)
19.08.2017 21:10 16,2 C 69 % 1020,0 hPa 0,0 l/m 0,0 km/h (0 Bft) W 281 0 min 10,5 C 16,2 C 0,0 km/h (0 Bft)
19.08.2017 21:05 16,3 C 67 % 1020,0 hPa 0,0 l/m 0,0 km/h (0 Bft) W 281 0 min 10,2 C 16,3 C 0,0 km/h (0 Bft)
19.08.2017 21:00 16,4 C 67 % 1019,9 hPa 0,0 l/m 0,0 km/h (0 Bft) W 281 0 min 10,3 C 16,4 C 0,0 km/h (0 Bft)
19.08.2017 20:55 16,5 C 66 % 1018,8 hPa 0,0 l/m 0,0 km/h (0 Bft) W 281 0 min 10,1 C 16,5 C 0,0 km/h (0 Bft)
19.08.2017 20:50 16,6 C 66 % 1018,8 hPa 0,0 l/m 0,0 km/h (0 Bft) W 281 0 min 10,2 C 16,6 C 0,0 km/h (0 Bft)
19.08.2017 20:45 16,7 C 64 % 1018,8 hPa 0,0 l/m 0,0 km/h (0 Bft) W 281 0 min 9,9 C 16,7 C 0,0 km/h (0 Bft)
19.08.2017 20:40 16,8 C 64 % 1018,8 hPa 0,0 l/m 0,0 km/h (0 Bft) W 281 0 min 10,0 C 16,8 C 0,0 km/h (0 Bft)
19.08.2017 20:35 16,9 C 63 % 1018,8 hPa 0,0 l/m 0,0 km/h (0 Bft) W 281 0 min 9,8 C 16,9 C 0,0 km/h (0 Bft)
19.08.2017 20:30 17,1 C 62 % 1018,7 hPa 0,0 l/m 0,0 km/h (0 Bft) N 10 0 min 9,8 C 17,1 C 0,0 km/h (0 Bft)
19.08.2017 20:25 17,2 C 62 % 1018,7 hPa 0,0 l/m 0,0 km/h (0 Bft) N 10 0 min 9,9 C 17,2 C 0,0 km/h (0 Bft)
19.08.2017 20:20 17,3 C 62 % 1018,7 hPa 0,0 l/m 0,0 km/h (0 Bft) O-NO 61 0 min 9,9 C 17,3 C 4,0 km/h (1 Bft)
19.08.2017 20:15 17,5 C 62 % 1018,6 hPa 0,0 l/m 0,0 km/h (0 Bft) O-NO 61 0 min 10,1 C 17,5 C 4,0 km/h (1 Bft)
19.08.2017 20:10 17,6 C 61 % 1018,6 hPa 0,0 l/m 0,0 km/h (0 Bft) O-NO 61 0 min 10,0 C 17,6 C 0,0 km/h (0 Bft)
19.08.2017 20:05 17,7 C 62 % 1018,6 hPa 0,0 l/m 0,0 km/h (0 Bft) O-NO 61 0 min 10,3 C 17,7 C 4,8 km/h (1 Bft)
19.08.2017 20:00 17,8 C 63 % 1018,6 hPa 0,0 l/m 0,0 km/h (0 Bft) O 99 0 min 10,7 C 17,8 C 0,0 km/h (0 Bft)
19.08.2017 19:55 17,9 C 62 % 1018,6 hPa 0,0 l/m 0,0 km/h (0 Bft) O 99 0 min 10,5 C 17,9 C 0,0 km/h (0 Bft)
19.08.2017 19:50 17,9 C 62 % 1018,6 hPa 0,0 l/m 0,0 km/h (0 Bft) O 99 0 min 10,5 C 17,9 C 4,0 km/h (1 Bft)
19.08.2017 19:45 17,9 C 62 % 1018,6 hPa 0,0 l/m 0,0 km/h (0 Bft) O 99 0 min 10,5 C 17,9 C 0,0 km/h (0 Bft)
19.08.2017 19:40 17,9 C 62 % 1018,6 hPa 0,0 l/m 0,0 km/h (0 Bft) O 99 5 min 10,5 C 17,9 C 0,0 km/h (0 Bft)
19.08.2017 19:35 18,0 C 61 % 1018,5 hPa 0,0 l/m 0,0 km/h (0 Bft) O 99 0 min 10,4 C 18,0 C 0,0 km/h (0 Bft)
19.08.2017 19:30 18,1 C 61 % 1018,5 hPa 0,0 l/m 0,0 km/h (0 Bft) O 99 0 min 10,5 C 18,1 C 5,6 km/h (2 Bft)
19.08.2017 19:25 18,2 C 60 % 1018,5 hPa 0,0 l/m 0,0 km/h (0 Bft) NW 315 5 min 10,3 C 18,2 C 4,8 km/h (1 Bft)
19.08.2017 19:20 18,3 C 59 % 1018,5 hPa 0,0 l/m 0,0 km/h (0 Bft) NW 316 5 min 10,1 C 18,3 C 5,6 km/h (2 Bft)
19.08.2017 19:15 18,5 C 59 % 1018,4 hPa 0,0 l/m 0,0 km/h (0 Bft) O 100 0 min 10,3 C 18,5 C 4,8 km/h (1 Bft)
19.08.2017 19:10 18,7 C 59 % 1018,4 hPa 0,0 l/m 0,0 km/h (0 Bft) S-SO 149 0 min 10,5 C 18,7 C 4,0 km/h (1 Bft)
19.08.2017 19:05 18,9 C 58 % 1018,3 hPa 0,0 l/m 0,0 km/h (0 Bft) N-NO 15 0 min 10,5 C 18,9 C 4,0 km/h (1 Bft)
19.08.2017 19:00 19,2 C 57 % 1018,3 hPa 0,0 l/m 4,0 km/h (1 Bft) O-NO 74 0 min 10,5 C 19,2 C 5,6 km/h (2 Bft)
19.08.2017 18:55 19,5 C 57 % 1018,2 hPa 0,0 l/m 0,0 km/h (0 Bft) O 93 5 min 10,8 C 19,5 C 6,5 km/h (2 Bft)
19.08.2017 18:50 19,8 C 56 % 1018,2 hPa 0,0 l/m 0,0 km/h (0 Bft) N 353 5 min 10,8 C 19,8 C 5,6 km/h (2 Bft)
19.08.2017 18:45 20,0 C 55 % 1018,1 hPa 0,0 l/m 0,0 km/h (0 Bft) O 92 5 min 10,7 C 20,0 C 4,0 km/h (1 Bft)
19.08.2017 18:40 20,0 C 54 % 1018,1 hPa 0,0 l/m 6,5 km/h (2 Bft) O-NO 68 0 min 10,4 C 20,0 C 7,3 km/h (2 Bft)
19.08.2017 18:35 19,9 C 55 % 1018,1 hPa 0,0 l/m 8,1 km/h (2 Bft) W 277 5 min 10,6 C 19,2 C 11,3 km/h (2 Bft)
19.08.2017 18:30 19,9 C 55 % 1018,1 hPa 0,0 l/m 4,0 km/h (1 Bft) SO 129 5 min 10,6 C 19,9 C 6,5 km/h (2 Bft)
19.08.2017 18:25 19,8 C 55 % 1018,2 hPa 0,0 l/m 4,8 km/h (1 Bft) O 94 5 min 10,5 C 19,8 C 7,3 km/h (2 Bft)
19.08.2017 18:20 19,8 C 57 % 1018,2 hPa 0,0 l/m 4,0 km/h (1 Bft) NW 324 5 min 11,0 C 19,8 C 5,6 km/h (2 Bft)
19.08.2017 18:15 19,8 C 56 % 1018,2 hPa 0,0 l/m 6,5 km/h (2 Bft) O-NO 58 5 min 10,8 C 19,8 C 7,3 km/h (2 Bft)
_ Min-Zeit 09:05 15:55 02:05 - 21:35 - - - 12:05 09:00 21:35
Minimum _ 14,0 C 53 % 1015,9 hPa - 0,0 km/h (0 Bft) - - - 9,5 C 13,0 C 0,0 km/h (0 Bft)
_ Max-Zeit 15:35 01:10 21:35 21:35 18:10 - - 19:40 01:10 15:35 18:10
Maximum _ 21,1 C 91 % 1020,1 hPa 0,0 l/m 17,3 km/h
W-SW (3 Bft)
- - 5 min 14,3 C 21,1 C 23,0 km/h
W-SW (4 Bft)
Durchschnitt _ 16,7 C 73 % 1017,7 hPa #0,0 l/m 1,5 km/h (1 Bft) W-SW - #1:45 h 11,6 C 16,6 C 3,4 km/h (1 Bft)